LHA8907 LPLA-CYQB
Flight info
| Callsign | LHA8907 |
|---|---|
| Flight time | 5h 2m |
| Altitude | 38000 |
| Route | SIPRU DCT LUKAL DCT 4440N DCT RAFIN/N0471F400 N94A MIILS DCT REVIK DCT SIMTO SIMTO4 |
| Aircraft | B77W/H-SDE1E2FGIJ1RWYZ/S |
Departure
| Time | 2026-05-07 10:33 |
|---|---|
| Airport | Lajes Airport (LPLA) |
Arrival
| Time | 2026-05-07 15:35 |
|---|---|
| Airport | Quebec Jean Lesage International Airport (CYQB) |
| Time | Latitude | Longitude | Altitude | Speed | Heading |
|---|---|---|---|---|---|
| 2026-05-07 10:05 | 38.76907 | -27.09502 | 172 ft | 0 kts | 81° |
| 2026-05-07 10:26 | 38.76909 | -27.09488 | 172 ft | 5 kts | 79° |
| 2026-05-07 10:26 | 38.76918 | -27.09410 | 172 ft | 10 kts | 89° |
| 2026-05-07 10:26 | 38.76882 | -27.09332 | 173 ft | 10 kts | 137° |
| 2026-05-07 10:26 | 38.76825 | -27.09274 | 173 ft | 10 kts | 141° |
| 2026-05-07 10:27 | 38.76769 | -27.09215 | 147 ft | 10 kts | 141° |
| 2026-05-07 10:27 | 38.76706 | -27.09217 | 174 ft | 10 kts | 218° |
| 2026-05-07 10:27 | 38.76662 | -27.09285 | 174 ft | 10 kts | 232° |
| 2026-05-07 10:27 | 38.76620 | -27.09354 | 174 ft | 10 kts | 231° |
| 2026-05-07 10:28 | 38.76576 | -27.09423 | 174 ft | 10 kts | 229° |
| 2026-05-07 10:28 | 38.76517 | -27.09436 | 175 ft | 6 kts | 153° |
| 2026-05-07 10:28 | 38.76463 | -27.09370 | 176 ft | 21 kts | 137° |
| 2026-05-07 10:28 | 38.76334 | -27.09232 | 176 ft | 25 kts | 141° |
| 2026-05-07 10:29 | 38.76198 | -27.09090 | 179 ft | 25 kts | 141° |
| 2026-05-07 10:29 | 38.76061 | -27.08949 | 181 ft | 25 kts | 141° |
| 2026-05-07 10:29 | 38.75926 | -27.08807 | 183 ft | 25 kts | 141° |
| 2026-05-07 10:30 | 38.75675 | -27.08545 | 183 ft | 16 kts | 141° |
| 2026-05-07 10:30 | 38.75542 | -27.08408 | 198 ft | 30 kts | 141° |
| 2026-05-07 10:30 | 38.75398 | -27.08256 | 203 ft | 20 kts | 137° |
| 2026-05-07 10:30 | 38.75349 | -27.08154 | 197 ft | 10 kts | 118° |
| 2026-05-07 10:31 | 38.75319 | -27.08143 | 197 ft | 3 kts | 217° |
| 2026-05-07 10:31 | 38.75315 | -27.08170 | 201 ft | 3 kts | 277° |
| 2026-05-07 10:31 | 38.75330 | -27.08193 | 200 ft | 3 kts | 321° |
| 2026-05-07 10:31 | 38.75334 | -27.08197 | 204 ft | 0 kts | 322° |
| 2026-05-07 10:32 | 38.75373 | -27.08237 | 203 ft | 20 kts | 322° |
| 2026-05-07 10:32 | 38.75643 | -27.08515 | 183 ft | 87 kts | 321° |
| 2026-05-07 10:32 | 38.76293 | -27.09190 | 183 ft | 150 kts | 321° |
| 2026-05-07 10:32 | 38.77161 | -27.10090 | 565 ft | 171 kts | 318° |
| 2026-05-07 10:33 | 38.78082 | -27.11132 | 1219 ft | 180 kts | 317° |
| 2026-05-07 10:33 | 38.78997 | -27.12198 | 2169 ft | 176 kts | 316° |
| 2026-05-07 10:33 | 38.79789 | -27.13422 | 2769 ft | 187 kts | 304° |
| 2026-05-07 10:33 | 38.80474 | -27.14902 | 3306 ft | 199 kts | 304° |
| 2026-05-07 10:34 | 38.81247 | -27.16448 | 3882 ft | 213 kts | 305° |
| 2026-05-07 10:34 | 38.82075 | -27.18079 | 4545 ft | 221 kts | 306° |
| 2026-05-07 10:34 | 38.82918 | -27.19725 | 5387 ft | 226 kts | 306° |
| 2026-05-07 10:34 | 38.83803 | -27.21456 | 6019 ft | 235 kts | 306° |
| 2026-05-07 10:35 | 38.84693 | -27.23210 | 6876 ft | 238 kts | 306° |
| 2026-05-07 10:35 | 38.85619 | -27.25002 | 7594 ft | 245 kts | 306° |
| 2026-05-07 10:35 | 38.86568 | -27.26847 | 8400 ft | 251 kts | 305° |
| 2026-05-07 10:35 | 38.87544 | -27.28731 | 9216 ft | 255 kts | 305° |
| 2026-05-07 10:36 | 38.88519 | -27.30639 | 10066 ft | 256 kts | 304° |
| 2026-05-07 10:36 | 38.89498 | -27.32552 | 10898 ft | 260 kts | 304° |
| 2026-05-07 10:36 | 38.90520 | -27.34559 | 11360 ft | 279 kts | 304° |
| 2026-05-07 10:36 | 38.91626 | -27.36740 | 11706 ft | 303 kts | 304° |
| 2026-05-07 10:37 | 38.92812 | -27.39098 | 12112 ft | 325 kts | 304° |
| 2026-05-07 10:37 | 38.94059 | -27.41572 | 12911 ft | 335 kts | 304° |
| 2026-05-07 10:37 | 38.95337 | -27.44096 | 13877 ft | 339 kts | 304° |
| 2026-05-07 10:37 | 38.96612 | -27.46601 | 14875 ft | 339 kts | 304° |
| 2026-05-07 10:38 | 38.97905 | -27.49140 | 15869 ft | 341 kts | 304° |
| 2026-05-07 10:38 | 38.99206 | -27.51696 | 16866 ft | 343 kts | 304° |
| 2026-05-07 10:38 | 39.00517 | -27.54273 | 17846 ft | 346 kts | 305° |
| 2026-05-07 10:38 | 39.01832 | -27.56864 | 18730 ft | 349 kts | 305° |
| 2026-05-07 10:39 | 39.03069 | -27.59301 | 19559 ft | 350 kts | 305° |
| 2026-05-07 10:39 | 39.03678 | -27.60503 | 19971 ft | 349 kts | 305° |
| 2026-05-07 10:39 | 39.05002 | -27.63117 | 20903 ft | 350 kts | 305° |
| 2026-05-07 10:39 | 39.06028 | -27.65145 | 21563 ft | 351 kts | 305° |
| 2026-05-07 10:40 | 39.06526 | -27.66129 | 21866 ft | 352 kts | 305° |
| 2026-05-07 10:40 | 39.07861 | -27.68770 | 22710 ft | 354 kts | 305° |
| 2026-05-07 10:40 | 39.08466 | -27.69967 | 23110 ft | 354 kts | 305° |
| 2026-05-07 10:40 | 39.09794 | -27.72598 | 23851 ft | 356 kts | 305° |
| 2026-05-07 10:41 | 39.11165 | -27.75314 | 24498 ft | 359 kts | 305° |
| 2026-05-07 10:41 | 39.12529 | -27.78021 | 25035 ft | 363 kts | 305° |
| 2026-05-07 10:41 | 39.13906 | -27.80754 | 25669 ft | 366 kts | 305° |
| 2026-05-07 10:41 | 39.15292 | -27.83509 | 26258 ft | 369 kts | 305° |
| 2026-05-07 10:42 | 39.16689 | -27.86287 | 26823 ft | 372 kts | 304° |
| 2026-05-07 10:42 | 39.18098 | -27.89091 | 27375 ft | 375 kts | 304° |
| 2026-05-07 10:42 | 39.19514 | -27.91925 | 27872 ft | 379 kts | 304° |
| 2026-05-07 10:42 | 39.20958 | -27.94827 | 28406 ft | 382 kts | 304° |
| 2026-05-07 10:43 | 39.22392 | -27.97717 | 28905 ft | 385 kts | 304° |
| 2026-05-07 10:43 | 39.23836 | -28.00629 | 29389 ft | 387 kts | 304° |
| 2026-05-07 10:43 | 39.25289 | -28.03561 | 29839 ft | 390 kts | 304° |
| 2026-05-07 10:43 | 39.26771 | -28.06554 | 30245 ft | 392 kts | 304° |
| 2026-05-07 10:44 | 39.28215 | -28.09473 | 30676 ft | 391 kts | 304° |
| 2026-05-07 10:44 | 39.29667 | -28.12413 | 31258 ft | 388 kts | 304° |
| 2026-05-07 10:44 | 39.31113 | -28.15341 | 31713 ft | 388 kts | 304° |
| 2026-05-07 10:44 | 39.32581 | -28.18314 | 32092 ft | 389 kts | 304° |
| 2026-05-07 10:45 | 39.34032 | -28.21257 | 32489 ft | 389 kts | 304° |
| 2026-05-07 10:45 | 39.35482 | -28.24199 | 32899 ft | 389 kts | 304° |
| 2026-05-07 10:45 | 39.36930 | -28.27142 | 33274 ft | 389 kts | 304° |
| 2026-05-07 10:45 | 39.38381 | -28.30091 | 33626 ft | 390 kts | 304° |
| 2026-05-07 10:46 | 39.39832 | -28.33045 | 33994 ft | 390 kts | 304° |
| 2026-05-07 10:46 | 39.41285 | -28.36005 | 34245 ft | 392 kts | 304° |
| 2026-05-07 10:46 | 39.42771 | -28.39033 | 34396 ft | 396 kts | 304° |
| 2026-05-07 10:46 | 39.44243 | -28.42038 | 34676 ft | 396 kts | 304° |
| 2026-05-07 10:47 | 39.45717 | -28.45048 | 34936 ft | 398 kts | 303° |
| 2026-05-07 10:47 | 39.47195 | -28.48071 | 35139 ft | 399 kts | 303° |
| 2026-05-07 10:47 | 39.48678 | -28.51106 | 35380 ft | 400 kts | 303° |
| 2026-05-07 10:47 | 39.50165 | -28.54153 | 35608 ft | 402 kts | 303° |
| 2026-05-07 10:48 | 39.51656 | -28.57211 | 35820 ft | 403 kts | 303° |
| 2026-05-07 10:48 | 39.53176 | -28.60331 | 35921 ft | 407 kts | 303° |
| 2026-05-07 10:48 | 39.56205 | -28.66558 | 35960 ft | 409 kts | 303° |
| 2026-05-07 10:49 | 39.59196 | -28.72722 | 35995 ft | 401 kts | 303° |
| 2026-05-07 10:49 | 39.62151 | -28.78822 | 36014 ft | 401 kts | 303° |
| 2026-05-07 10:50 | 39.65131 | -28.84982 | 36014 ft | 402 kts | 303° |
| 2026-05-07 10:50 | 39.68098 | -28.91129 | 36021 ft | 404 kts | 303° |
| 2026-05-07 10:51 | 39.71074 | -28.97307 | 35981 ft | 405 kts | 303° |
| 2026-05-07 10:51 | 39.74045 | -29.03487 | 36008 ft | 404 kts | 303° |
| 2026-05-07 10:52 | 39.77027 | -29.09703 | 36011 ft | 403 kts | 303° |
| 2026-05-07 10:52 | 39.79984 | -29.15878 | 36029 ft | 404 kts | 303° |
| 2026-05-07 10:53 | 39.82944 | -29.22071 | 36018 ft | 404 kts | 303° |
| 2026-05-07 10:53 | 39.85901 | -29.28271 | 36014 ft | 403 kts | 303° |
| 2026-05-07 10:54 | 39.88865 | -29.34499 | 36015 ft | 402 kts | 303° |
| 2026-05-07 10:54 | 39.91802 | -29.40679 | 36042 ft | 402 kts | 303° |
| 2026-05-07 10:55 | 39.94737 | -29.46870 | 36032 ft | 403 kts | 303° |
| 2026-05-07 10:55 | 39.97672 | -29.53072 | 36024 ft | 403 kts | 303° |
| 2026-05-07 10:56 | 40.00620 | -29.59314 | 36011 ft | 402 kts | 303° |
| 2026-05-07 10:56 | 40.03537 | -29.65503 | 36054 ft | 401 kts | 303° |
| 2026-05-07 10:57 | 40.06453 | -29.71702 | 36041 ft | 402 kts | 303° |
| 2026-05-07 10:57 | 40.09370 | -29.77916 | 36037 ft | 402 kts | 303° |
| 2026-05-07 10:58 | 40.12308 | -29.84185 | 35991 ft | 402 kts | 303° |
| 2026-05-07 10:58 | 40.15214 | -29.90402 | 36029 ft | 401 kts | 303° |
| 2026-05-07 10:59 | 40.18115 | -29.96619 | 36040 ft | 401 kts | 303° |
| 2026-05-07 10:59 | 40.21014 | -30.02844 | 36037 ft | 402 kts | 303° |
| 2026-05-07 11:00 | 40.23448 | -30.08081 | 36044 ft | 402 kts | 303° |
| 2026-05-07 11:00 | 40.26342 | -30.14317 | 36041 ft | 401 kts | 303° |
| 2026-05-07 11:01 | 40.29223 | -30.20539 | 36036 ft | 400 kts | 303° |
| 2026-05-07 11:01 | 40.32100 | -30.26764 | 36034 ft | 400 kts | 303° |
| 2026-05-07 11:02 | 40.34992 | -30.33033 | 36040 ft | 400 kts | 303° |
| 2026-05-07 11:02 | 40.37860 | -30.39267 | 36057 ft | 400 kts | 303° |
| 2026-05-07 11:03 | 40.40723 | -30.45498 | 36051 ft | 400 kts | 303° |
| 2026-05-07 11:03 | 40.43581 | -30.51734 | 36053 ft | 400 kts | 303° |
| 2026-05-07 11:04 | 40.46457 | -30.58020 | 36050 ft | 400 kts | 303° |
| 2026-05-07 11:04 | 40.49312 | -30.64273 | 36060 ft | 400 kts | 303° |
| 2026-05-07 11:05 | 40.52165 | -30.70535 | 36027 ft | 399 kts | 303° |
| 2026-05-07 11:05 | 40.55004 | -30.76779 | 36054 ft | 398 kts | 303° |
| 2026-05-07 11:06 | 40.57831 | -30.83010 | 36051 ft | 397 kts | 303° |
| 2026-05-07 11:06 | 40.60667 | -30.89271 | 36060 ft | 396 kts | 303° |
| 2026-05-07 11:07 | 40.63477 | -30.95489 | 36067 ft | 397 kts | 303° |
| 2026-05-07 11:07 | 40.66292 | -31.01730 | 36062 ft | 398 kts | 303° |
| 2026-05-07 11:08 | 40.69111 | -31.07992 | 36042 ft | 398 kts | 303° |
| 2026-05-07 11:08 | 40.71940 | -31.14291 | 36058 ft | 397 kts | 303° |
| 2026-05-07 11:09 | 40.74745 | -31.20549 | 36063 ft | 397 kts | 303° |
| 2026-05-07 11:09 | 40.77547 | -31.26813 | 36066 ft | 397 kts | 303° |
| 2026-05-07 11:10 | 40.80346 | -31.33083 | 36065 ft | 397 kts | 303° |
| 2026-05-07 11:10 | 40.83160 | -31.39399 | 36066 ft | 397 kts | 303° |
| 2026-05-07 11:11 | 40.85952 | -31.45679 | 36064 ft | 397 kts | 303° |
| 2026-05-07 11:11 | 40.88740 | -31.51965 | 36066 ft | 397 kts | 303° |
| 2026-05-07 11:12 | 40.91527 | -31.58259 | 36068 ft | 398 kts | 303° |
| 2026-05-07 11:12 | 40.94331 | -31.64604 | 36069 ft | 398 kts | 303° |
| 2026-05-07 11:13 | 40.97113 | -31.70916 | 36062 ft | 398 kts | 303° |
| 2026-05-07 11:13 | 40.99893 | -31.77235 | 36074 ft | 398 kts | 303° |
| 2026-05-07 11:14 | 41.02671 | -31.83561 | 36074 ft | 398 kts | 303° |
| 2026-05-07 11:14 | 41.05466 | -31.89939 | 36076 ft | 399 kts | 303° |
| 2026-05-07 11:15 | 41.08239 | -31.96282 | 36073 ft | 399 kts | 303° |
| 2026-05-07 11:15 | 41.11027 | -32.02672 | 36079 ft | 398 kts | 303° |
| 2026-05-07 11:16 | 41.13774 | -32.08981 | 36081 ft | 399 kts | 303° |
| 2026-05-07 11:16 | 41.16555 | -32.15382 | 36082 ft | 399 kts | 303° |
| 2026-05-07 11:17 | 41.19314 | -32.21746 | 36086 ft | 399 kts | 303° |
| 2026-05-07 11:17 | 41.22071 | -32.28117 | 36087 ft | 399 kts | 303° |
| 2026-05-07 11:18 | 41.24826 | -32.34497 | 36090 ft | 399 kts | 303° |
| 2026-05-07 11:18 | 41.27542 | -32.40977 | 36090 ft | 400 kts | 302° |
| 2026-05-07 11:19 | 41.30179 | -32.47472 | 36092 ft | 400 kts | 302° |
| 2026-05-07 11:19 | 41.32813 | -32.53974 | 36094 ft | 400 kts | 302° |
| 2026-05-07 11:20 | 41.35450 | -32.60474 | 36095 ft | 400 kts | 302° |
| 2026-05-07 11:20 | 41.38104 | -32.67020 | 36095 ft | 400 kts | 302° |
| 2026-05-07 11:21 | 41.40739 | -32.73528 | 36097 ft | 400 kts | 302° |
| 2026-05-07 11:21 | 41.43365 | -32.80027 | 36094 ft | 398 kts | 302° |
| 2026-05-07 11:22 | 41.45976 | -32.86506 | 36101 ft | 397 kts | 302° |
| 2026-05-07 11:22 | 41.48596 | -32.93019 | 36110 ft | 396 kts | 302° |
| 2026-05-07 11:23 | 41.51209 | -32.99529 | 36110 ft | 396 kts | 302° |
| 2026-05-07 11:23 | 41.53782 | -33.05954 | 36104 ft | 396 kts | 302° |
| 2026-05-07 11:24 | 41.56369 | -33.12427 | 36109 ft | 396 kts | 302° |
| 2026-05-07 11:24 | 41.58971 | -33.18952 | 36113 ft | 396 kts | 302° |
| 2026-05-07 11:25 | 41.61554 | -33.25446 | 36115 ft | 397 kts | 302° |
| 2026-05-07 11:25 | 41.64137 | -33.31951 | 36134 ft | 397 kts | 302° |
| 2026-05-07 11:26 | 41.66735 | -33.38511 | 36137 ft | 397 kts | 302° |
| 2026-05-07 11:26 | 41.69314 | -33.45037 | 36139 ft | 398 kts | 302° |
| 2026-05-07 11:27 | 41.71891 | -33.51573 | 36142 ft | 398 kts | 302° |
| 2026-05-07 11:27 | 41.74465 | -33.58117 | 36142 ft | 398 kts | 302° |
| 2026-05-07 11:28 | 41.77049 | -33.64700 | 36123 ft | 396 kts | 302° |
| 2026-05-07 11:28 | 41.79603 | -33.71222 | 36137 ft | 396 kts | 302° |
| 2026-05-07 11:29 | 41.82149 | -33.77738 | 36144 ft | 395 kts | 302° |
| 2026-05-07 11:29 | 41.84705 | -33.84295 | 36146 ft | 395 kts | 302° |
| 2026-05-07 11:30 | 41.87222 | -33.90764 | 36141 ft | 394 kts | 302° |
| 2026-05-07 11:30 | 41.89768 | -33.97323 | 36153 ft | 394 kts | 302° |
| 2026-05-07 11:31 | 41.92295 | -34.03846 | 36150 ft | 395 kts | 302° |
| 2026-05-07 11:31 | 41.94820 | -34.10383 | 36156 ft | 395 kts | 302° |
| 2026-05-07 11:32 | 41.98622 | -34.20251 | 36153 ft | 396 kts | 302° |
| 2026-05-07 11:33 | 42.01144 | -34.26813 | 36161 ft | 396 kts | 302° |
| 2026-05-07 11:33 | 42.03665 | -34.33389 | 36164 ft | 397 kts | 301° |
| 2026-05-07 11:34 | 42.06185 | -34.39979 | 36171 ft | 397 kts | 301° |
| 2026-05-07 11:34 | 42.08704 | -34.46581 | 36153 ft | 397 kts | 301° |
| 2026-05-07 11:35 | 42.11236 | -34.53230 | 36164 ft | 397 kts | 301° |
| 2026-05-07 11:35 | 42.13749 | -34.59847 | 36177 ft | 398 kts | 301° |
| 2026-05-07 11:36 | 42.16263 | -34.66482 | 36177 ft | 399 kts | 301° |
| 2026-05-07 11:36 | 42.18778 | -34.73134 | 36180 ft | 399 kts | 301° |
| 2026-05-07 11:37 | 42.21310 | -34.79847 | 36178 ft | 400 kts | 301° |
| 2026-05-07 11:37 | 42.23827 | -34.86534 | 36189 ft | 401 kts | 301° |
| 2026-05-07 11:38 | 42.26343 | -34.93237 | 36187 ft | 401 kts | 301° |
| 2026-05-07 11:38 | 42.28858 | -34.99952 | 36197 ft | 402 kts | 301° |
| 2026-05-07 11:39 | 42.31387 | -35.06722 | 36189 ft | 402 kts | 301° |
| 2026-05-07 11:39 | 42.33897 | -35.13454 | 36200 ft | 402 kts | 301° |
| 2026-05-07 11:40 | 42.36406 | -35.20201 | 36195 ft | 403 kts | 301° |
| 2026-05-07 11:40 | 42.38912 | -35.26955 | 36205 ft | 403 kts | 301° |
| 2026-05-07 11:41 | 42.41430 | -35.33760 | 36197 ft | 403 kts | 300° |
| 2026-05-07 11:41 | 42.43929 | -35.40524 | 36202 ft | 402 kts | 300° |
| 2026-05-07 11:42 | 42.46425 | -35.47301 | 36207 ft | 403 kts | 300° |
| 2026-05-07 11:42 | 42.48922 | -35.54098 | 36213 ft | 404 kts | 300° |
| 2026-05-07 11:43 | 42.51438 | -35.60960 | 36222 ft | 405 kts | 300° |
| 2026-05-07 11:43 | 42.53937 | -35.67796 | 36216 ft | 406 kts | 300° |
| 2026-05-07 11:44 | 42.56437 | -35.74648 | 36222 ft | 407 kts | 300° |
| 2026-05-07 11:44 | 42.58954 | -35.81564 | 36226 ft | 407 kts | 300° |
| 2026-05-07 11:45 | 42.61453 | -35.88449 | 36227 ft | 408 kts | 299° |
| 2026-05-07 11:45 | 42.63949 | -35.95343 | 36226 ft | 408 kts | 299° |
| 2026-05-07 11:46 | 42.66442 | -36.02244 | 36253 ft | 408 kts | 299° |
| 2026-05-07 11:46 | 42.68950 | -36.09204 | 36235 ft | 408 kts | 299° |
| 2026-05-07 11:47 | 42.71438 | -36.16125 | 36239 ft | 408 kts | 299° |
| 2026-05-07 11:47 | 42.73921 | -36.23052 | 36238 ft | 408 kts | 299° |
| 2026-05-07 11:48 | 42.76417 | -36.30028 | 36234 ft | 408 kts | 298° |
| 2026-05-07 11:48 | 42.78891 | -36.36963 | 36247 ft | 408 kts | 298° |
| 2026-05-07 11:49 | 42.81364 | -36.43911 | 36249 ft | 409 kts | 298° |
| 2026-05-07 11:49 | 42.83835 | -36.50872 | 36247 ft | 409 kts | 298° |
| 2026-05-07 11:50 | 42.86306 | -36.57849 | 36244 ft | 410 kts | 298° |
| 2026-05-07 11:50 | 42.88380 | -36.63721 | 36250 ft | 410 kts | 298° |
| 2026-05-07 11:51 | 42.90849 | -36.70726 | 36257 ft | 411 kts | 298° |
| 2026-05-07 11:51 | 42.93318 | -36.77747 | 36259 ft | 411 kts | 298° |
| 2026-05-07 11:52 | 42.95801 | -36.84828 | 36252 ft | 412 kts | 298° |
| 2026-05-07 11:52 | 42.98267 | -36.91878 | 36265 ft | 413 kts | 298° |
| 2026-05-07 11:53 | 43.00733 | -36.98947 | 36263 ft | 413 kts | 298° |
| 2026-05-07 11:53 | 43.03198 | -37.06031 | 36273 ft | 414 kts | 298° |
| 2026-05-07 11:54 | 43.05678 | -37.13174 | 36263 ft | 414 kts | 298° |
| 2026-05-07 11:54 | 43.08139 | -37.20283 | 36264 ft | 415 kts | 297° |
| 2026-05-07 11:55 | 43.10597 | -37.27401 | 36272 ft | 415 kts | 297° |
| 2026-05-07 11:55 | 43.13054 | -37.34535 | 36274 ft | 416 kts | 297° |
| 2026-05-07 11:56 | 43.15527 | -37.41737 | 36283 ft | 417 kts | 297° |
| 2026-05-07 11:56 | 43.17986 | -37.48913 | 36295 ft | 417 kts | 297° |
| 2026-05-07 11:57 | 43.20462 | -37.56161 | 36279 ft | 418 kts | 297° |
| 2026-05-07 11:57 | 43.22906 | -37.63333 | 36284 ft | 419 kts | 296° |
| 2026-05-07 11:58 | 43.25382 | -37.70616 | 36281 ft | 420 kts | 296° |
| 2026-05-07 11:58 | 43.27837 | -37.77858 | 36277 ft | 420 kts | 296° |
| 2026-05-07 11:59 | 43.30288 | -37.85110 | 36282 ft | 420 kts | 296° |
| 2026-05-07 11:59 | 43.32737 | -37.92373 | 36302 ft | 420 kts | 296° |
| 2026-05-07 12:00 | 43.35199 | -37.99693 | 36304 ft | 420 kts | 296° |
| 2026-05-07 12:00 | 43.37639 | -38.06972 | 36300 ft | 420 kts | 296° |
| 2026-05-07 12:01 | 43.40077 | -38.14260 | 36301 ft | 421 kts | 296° |
| 2026-05-07 12:01 | 43.42529 | -38.21609 | 36299 ft | 421 kts | 295° |
| 2026-05-07 12:02 | 43.44960 | -38.28918 | 36307 ft | 421 kts | 295° |
| 2026-05-07 12:02 | 43.47388 | -38.36239 | 36307 ft | 421 kts | 295° |
| 2026-05-07 12:03 | 43.49815 | -38.43575 | 36304 ft | 422 kts | 295° |
| 2026-05-07 12:03 | 43.52258 | -38.50979 | 36309 ft | 423 kts | 295° |
| 2026-05-07 12:04 | 43.54683 | -38.58352 | 36310 ft | 424 kts | 295° |
| 2026-05-07 12:04 | 43.57108 | -38.65740 | 36313 ft | 424 kts | 295° |
| 2026-05-07 12:05 | 43.59529 | -38.73140 | 36305 ft | 424 kts | 295° |
| 2026-05-07 12:05 | 43.61964 | -38.80602 | 36317 ft | 425 kts | 295° |
| 2026-05-07 12:06 | 43.64380 | -38.88030 | 36312 ft | 425 kts | 295° |
| 2026-05-07 12:06 | 43.66795 | -38.95471 | 36316 ft | 426 kts | 295° |
| 2026-05-07 12:07 | 43.69206 | -39.02924 | 36312 ft | 426 kts | 295° |
| 2026-05-07 12:07 | 43.71630 | -39.10439 | 36322 ft | 426 kts | 295° |
| 2026-05-07 12:08 | 43.74036 | -39.17915 | 36306 ft | 426 kts | 295° |
| 2026-05-07 12:08 | 43.76427 | -39.25370 | 36312 ft | 424 kts | 295° |
| 2026-05-07 12:09 | 43.78802 | -39.32794 | 36315 ft | 422 kts | 294° |
| 2026-05-07 12:09 | 43.81177 | -39.40238 | 36323 ft | 420 kts | 294° |
| 2026-05-07 12:10 | 43.83523 | -39.47613 | 36326 ft | 419 kts | 294° |
| 2026-05-07 12:10 | 43.85860 | -39.54980 | 36326 ft | 418 kts | 294° |
| 2026-05-07 12:11 | 43.88191 | -39.62348 | 36327 ft | 418 kts | 294° |
| 2026-05-07 12:11 | 43.90534 | -39.69777 | 36324 ft | 419 kts | 294° |
| 2026-05-07 12:12 | 43.92864 | -39.77182 | 36331 ft | 420 kts | 294° |
| 2026-05-07 12:12 | 43.95196 | -39.84616 | 36336 ft | 422 kts | 294° |
| 2026-05-07 12:13 | 43.97531 | -39.92079 | 36334 ft | 423 kts | 294° |
| 2026-05-07 12:13 | 43.99716 | -39.99708 | 36342 ft | 424 kts | 288° |
| 2026-05-07 12:14 | 44.01026 | -40.07699 | 36337 ft | 427 kts | 282° |
| 2026-05-07 12:14 | 44.02028 | -40.15805 | 36334 ft | 426 kts | 282° |
| 2026-05-07 12:15 | 44.03034 | -40.23897 | 36335 ft | 425 kts | 282° |
| 2026-05-07 12:15 | 44.04041 | -40.31968 | 36341 ft | 424 kts | 282° |
| 2026-05-07 12:16 | 44.05052 | -40.40075 | 36338 ft | 423 kts | 282° |
| 2026-05-07 12:16 | 44.06050 | -40.48116 | 36339 ft | 423 kts | 282° |
| 2026-05-07 12:17 | 44.07042 | -40.56154 | 36342 ft | 423 kts | 282° |
| 2026-05-07 12:17 | 44.08034 | -40.64249 | 36354 ft | 423 kts | 281° |
| 2026-05-07 12:18 | 44.09015 | -40.72300 | 36353 ft | 423 kts | 281° |
| 2026-05-07 12:18 | 44.09991 | -40.80361 | 36345 ft | 424 kts | 281° |
| 2026-05-07 12:19 | 44.10962 | -40.88432 | 36343 ft | 424 kts | 281° |
| 2026-05-07 12:19 | 44.11929 | -40.96518 | 36348 ft | 425 kts | 281° |
| 2026-05-07 12:20 | 44.12899 | -41.04677 | 36346 ft | 426 kts | 281° |
| 2026-05-07 12:20 | 44.13858 | -41.12800 | 36352 ft | 427 kts | 281° |
| 2026-05-07 12:21 | 44.14813 | -41.20937 | 36359 ft | 427 kts | 281° |
| 2026-05-07 12:21 | 44.15763 | -41.29082 | 36363 ft | 427 kts | 281° |
| 2026-05-07 12:22 | 44.16714 | -41.37287 | 36358 ft | 427 kts | 281° |
| 2026-05-07 12:22 | 44.17651 | -41.45437 | 36356 ft | 427 kts | 281° |
| 2026-05-07 12:23 | 44.18583 | -41.53587 | 36358 ft | 427 kts | 281° |
| 2026-05-07 12:23 | 44.19509 | -41.61739 | 36364 ft | 427 kts | 281° |
| 2026-05-07 12:24 | 44.20436 | -41.69946 | 36364 ft | 427 kts | 281° |
| 2026-05-07 12:24 | 44.21350 | -41.78099 | 36365 ft | 427 kts | 280° |
| 2026-05-07 12:25 | 44.22265 | -41.86316 | 36371 ft | 427 kts | 280° |
| 2026-05-07 12:25 | 44.23169 | -41.94491 | 36371 ft | 428 kts | 280° |
| 2026-05-07 12:26 | 44.24068 | -42.02670 | 36360 ft | 427 kts | 280° |
| 2026-05-07 12:26 | 44.24958 | -42.10835 | 36370 ft | 426 kts | 280° |
| 2026-05-07 12:27 | 44.25842 | -42.18987 | 36376 ft | 426 kts | 280° |
| 2026-05-07 12:27 | 44.26725 | -42.27189 | 36369 ft | 426 kts | 279° |
| 2026-05-07 12:28 | 44.27596 | -42.35340 | 36376 ft | 426 kts | 279° |
| 2026-05-07 12:28 | 44.28462 | -42.43499 | 36378 ft | 426 kts | 279° |
| 2026-05-07 12:29 | 44.29329 | -42.51724 | 36375 ft | 427 kts | 279° |
| 2026-05-07 12:29 | 44.30185 | -42.59902 | 36373 ft | 426 kts | 279° |
| 2026-05-07 12:30 | 44.31033 | -42.68064 | 36380 ft | 425 kts | 279° |
| 2026-05-07 12:30 | 44.31879 | -42.76272 | 36382 ft | 425 kts | 279° |
| 2026-05-07 12:31 | 44.32714 | -42.84421 | 36387 ft | 425 kts | 279° |
| 2026-05-07 12:31 | 44.33543 | -42.92573 | 36385 ft | 425 kts | 279° |
| 2026-05-07 12:32 | 44.34366 | -43.00731 | 36387 ft | 425 kts | 279° |
| 2026-05-07 12:32 | 44.35184 | -43.08896 | 36388 ft | 425 kts | 279° |
| 2026-05-07 12:33 | 44.36409 | -43.21234 | 36368 ft | 427 kts | 279° |
| 2026-05-07 12:33 | 44.37216 | -43.29436 | 36377 ft | 426 kts | 279° |
| 2026-05-07 12:34 | 44.38013 | -43.37614 | 36383 ft | 425 kts | 279° |
| 2026-05-07 12:34 | 44.38808 | -43.45818 | 36384 ft | 423 kts | 279° |
| 2026-05-07 12:35 | 44.39589 | -43.53944 | 36399 ft | 422 kts | 279° |
| 2026-05-07 12:35 | 44.40363 | -43.62054 | 36406 ft | 421 kts | 278° |
| 2026-05-07 12:36 | 44.41002 | -43.68804 | 36388 ft | 421 kts | 278° |
| 2026-05-07 12:36 | 44.41895 | -43.78305 | 36407 ft | 421 kts | 278° |
| 2026-05-07 12:37 | 44.42650 | -43.86407 | 36394 ft | 420 kts | 278° |
| 2026-05-07 12:37 | 44.43396 | -43.94481 | 36393 ft | 418 kts | 278° |
| 2026-05-07 12:38 | 44.44016 | -44.01238 | 36404 ft | 417 kts | 278° |
| 2026-05-07 12:38 | 44.44749 | -44.09271 | 36403 ft | 417 kts | 278° |
| 2026-05-07 12:39 | 44.45475 | -44.17308 | 36403 ft | 417 kts | 278° |
| 2026-05-07 12:39 | 44.46197 | -44.25360 | 36410 ft | 418 kts | 278° |
| 2026-05-07 12:40 | 44.46920 | -44.33487 | 36407 ft | 419 kts | 278° |
| 2026-05-07 12:40 | 44.47634 | -44.41578 | 36414 ft | 420 kts | 278° |
| 2026-05-07 12:41 | 44.48343 | -44.49686 | 36403 ft | 421 kts | 278° |
| 2026-05-07 12:41 | 44.49052 | -44.57853 | 36408 ft | 421 kts | 278° |
| 2026-05-07 12:42 | 44.49750 | -44.65969 | 36412 ft | 421 kts | 278° |
| 2026-05-07 12:42 | 44.50442 | -44.74086 | 36416 ft | 421 kts | 278° |
| 2026-05-07 12:43 | 44.51128 | -44.82202 | 36409 ft | 420 kts | 278° |
| 2026-05-07 12:43 | 44.51813 | -44.90371 | 36411 ft | 420 kts | 278° |
| 2026-05-07 12:44 | 44.52488 | -44.98492 | 36407 ft | 421 kts | 277° |
| 2026-05-07 12:44 | 44.53159 | -45.06640 | 36410 ft | 422 kts | 277° |
| 2026-05-07 12:45 | 44.53827 | -45.14808 | 36410 ft | 422 kts | 277° |
| 2026-05-07 12:45 | 44.54490 | -45.23008 | 36411 ft | 421 kts | 277° |
| 2026-05-07 12:46 | 44.55140 | -45.31120 | 36414 ft | 419 kts | 277° |
| 2026-05-07 12:46 | 44.55782 | -45.39199 | 36419 ft | 417 kts | 277° |
| 2026-05-07 12:47 | 44.56418 | -45.47276 | 36414 ft | 418 kts | 277° |
| 2026-05-07 12:47 | 44.57054 | -45.55427 | 36420 ft | 419 kts | 277° |
| 2026-05-07 12:48 | 44.57682 | -45.63555 | 36416 ft | 421 kts | 277° |
| 2026-05-07 12:48 | 44.58307 | -45.71713 | 36417 ft | 422 kts | 277° |
| 2026-05-07 12:49 | 44.58926 | -45.79883 | 36412 ft | 421 kts | 277° |
| 2026-05-07 12:49 | 44.59542 | -45.88078 | 36404 ft | 420 kts | 276° |
| 2026-05-07 12:50 | 44.60146 | -45.96204 | 36414 ft | 419 kts | 276° |
| 2026-05-07 12:50 | 44.60748 | -46.04376 | 36415 ft | 419 kts | 276° |
| 2026-05-07 12:51 | 44.61340 | -46.12495 | 36416 ft | 419 kts | 276° |
| 2026-05-07 12:51 | 44.61926 | -46.20620 | 36413 ft | 419 kts | 276° |
| 2026-05-07 12:52 | 44.62508 | -46.28752 | 36414 ft | 420 kts | 276° |
| 2026-05-07 12:52 | 44.63089 | -46.36961 | 36411 ft | 422 kts | 276° |
| 2026-05-07 12:53 | 44.63662 | -46.45151 | 36406 ft | 423 kts | 276° |
| 2026-05-07 12:53 | 44.64230 | -46.53344 | 36411 ft | 422 kts | 276° |
| 2026-05-07 12:54 | 44.64791 | -46.61529 | 36409 ft | 422 kts | 276° |
| 2026-05-07 12:54 | 44.65349 | -46.69757 | 36409 ft | 421 kts | 276° |
| 2026-05-07 12:55 | 44.65896 | -46.77916 | 36413 ft | 421 kts | 276° |
| 2026-05-07 12:55 | 44.66439 | -46.86095 | 36412 ft | 422 kts | 276° |
| 2026-05-07 12:56 | 44.66982 | -46.94363 | 36406 ft | 424 kts | 275° |
| 2026-05-07 12:56 | 44.67517 | -47.02612 | 36404 ft | 426 kts | 275° |
| 2026-05-07 12:57 | 44.68049 | -47.10889 | 36410 ft | 427 kts | 275° |
| 2026-05-07 12:57 | 44.68575 | -47.19187 | 36400 ft | 427 kts | 275° |
| 2026-05-07 12:58 | 44.69100 | -47.27556 | 36395 ft | 429 kts | 275° |
| 2026-05-07 12:58 | 44.69617 | -47.35900 | 36406 ft | 430 kts | 275° |
| 2026-05-07 12:59 | 44.70130 | -47.44272 | 36406 ft | 431 kts | 275° |
| 2026-05-07 12:59 | 44.70637 | -47.52666 | 36403 ft | 432 kts | 275° |
| 2026-05-07 13:00 | 44.71143 | -47.61128 | 36404 ft | 432 kts | 275° |
| 2026-05-07 13:00 | 44.71639 | -47.69533 | 36391 ft | 432 kts | 275° |
| 2026-05-07 13:01 | 44.72128 | -47.77932 | 36393 ft | 432 kts | 275° |
| 2026-05-07 13:01 | 44.72611 | -47.86329 | 36396 ft | 432 kts | 275° |
| 2026-05-07 13:02 | 44.73091 | -47.94786 | 36386 ft | 432 kts | 274° |
| 2026-05-07 13:02 | 44.73561 | -48.03189 | 36387 ft | 432 kts | 274° |
| 2026-05-07 13:03 | 44.74026 | -48.11595 | 36387 ft | 432 kts | 274° |
| 2026-05-07 13:03 | 44.74485 | -48.20002 | 36387 ft | 432 kts | 274° |
| 2026-05-07 13:04 | 44.74937 | -48.28412 | 36384 ft | 432 kts | 274° |
| 2026-05-07 13:04 | 44.75386 | -48.36868 | 36383 ft | 430 kts | 274° |
| 2026-05-07 13:05 | 44.75823 | -48.45218 | 36384 ft | 427 kts | 274° |
| 2026-05-07 13:05 | 44.76250 | -48.53511 | 36386 ft | 425 kts | 274° |
| 2026-05-07 13:06 | 44.76670 | -48.61764 | 36380 ft | 423 kts | 274° |
| 2026-05-07 13:06 | 44.77090 | -48.70159 | 36387 ft | 434 kts | 274° |
| 2026-05-07 13:07 | 44.77508 | -48.78629 | 36378 ft | 434 kts | 274° |
| 2026-05-07 13:07 | 44.77919 | -48.87071 | 36380 ft | 432 kts | 274° |
| 2026-05-07 13:08 | 44.78323 | -48.95507 | 36489 ft | 435 kts | 274° |
| 2026-05-07 13:08 | 44.78525 | -48.99776 | 37061 ft | 428 kts | 273° |
| 2026-05-07 13:08 | 44.78720 | -49.03926 | 37545 ft | 425 kts | 273° |
| 2026-05-07 13:09 | 44.78913 | -49.08078 | 37809 ft | 427 kts | 273° |
| 2026-05-07 13:09 | 44.79107 | -49.12281 | 37827 ft | 434 kts | 273° |
| 2026-05-07 13:09 | 44.79302 | -49.16528 | 38022 ft | 436 kts | 273° |
| 2026-05-07 13:09 | 44.79495 | -49.20780 | 38304 ft | 437 kts | 273° |
| 2026-05-07 13:10 | 44.79879 | -49.29337 | 38371 ft | 439 kts | 273° |
| 2026-05-07 13:10 | 44.80258 | -49.37918 | 38359 ft | 434 kts | 273° |
| 2026-05-07 13:11 | 44.80625 | -49.46364 | 38368 ft | 433 kts | 273° |
| 2026-05-07 13:11 | 44.80984 | -49.54798 | 38367 ft | 432 kts | 273° |
| 2026-05-07 13:12 | 44.81339 | -49.63258 | 38355 ft | 435 kts | 273° |
| 2026-05-07 13:12 | 44.81691 | -49.71810 | 38362 ft | 436 kts | 272° |
| 2026-05-07 13:13 | 44.82036 | -49.80339 | 38358 ft | 438 kts | 272° |
| 2026-05-07 13:13 | 44.82375 | -49.88894 | 38356 ft | 439 kts | 272° |
| 2026-05-07 13:14 | 44.82711 | -49.97522 | 38350 ft | 439 kts | 272° |
| 2026-05-07 13:14 | 44.83039 | -50.06105 | 38340 ft | 440 kts | 272° |
| 2026-05-07 13:15 | 44.83360 | -50.14709 | 38349 ft | 441 kts | 272° |
| 2026-05-07 13:15 | 44.83678 | -50.23387 | 38345 ft | 442 kts | 272° |
| 2026-05-07 13:16 | 44.83988 | -50.32019 | 38341 ft | 442 kts | 272° |
| 2026-05-07 13:16 | 44.84292 | -50.40647 | 38334 ft | 442 kts | 272° |
| 2026-05-07 13:17 | 44.84588 | -50.49266 | 38332 ft | 441 kts | 272° |
| 2026-05-07 13:17 | 44.84878 | -50.57881 | 38331 ft | 441 kts | 272° |
| 2026-05-07 13:18 | 44.85162 | -50.66547 | 38326 ft | 441 kts | 272° |
| 2026-05-07 13:18 | 44.85439 | -50.75153 | 38327 ft | 440 kts | 272° |
| 2026-05-07 13:19 | 44.85709 | -50.83758 | 38320 ft | 440 kts | 272° |
| 2026-05-07 13:19 | 44.85974 | -50.92420 | 38306 ft | 440 kts | 272° |
| 2026-05-07 13:20 | 44.86230 | -51.01023 | 38313 ft | 440 kts | 272° |
| 2026-05-07 13:20 | 44.86481 | -51.09628 | 38314 ft | 440 kts | 272° |
| 2026-05-07 13:21 | 44.86725 | -51.18237 | 38310 ft | 441 kts | 272° |
| 2026-05-07 13:21 | 44.86964 | -51.26906 | 38310 ft | 441 kts | 272° |
| 2026-05-07 13:22 | 44.87195 | -51.35522 | 38304 ft | 441 kts | 272° |
| 2026-05-07 13:22 | 44.87420 | -51.44140 | 38302 ft | 441 kts | 272° |
| 2026-05-07 13:23 | 44.87639 | -51.52764 | 38300 ft | 441 kts | 271° |
| 2026-05-07 13:23 | 44.87851 | -51.61391 | 38294 ft | 441 kts | 272° |
| 2026-05-07 13:24 | 44.88026 | -51.68637 | 38297 ft | 441 kts | 271° |
| 2026-05-07 13:24 | 44.88263 | -51.77262 | 38289 ft | 441 kts | 275° |
| 2026-05-07 13:25 | 44.89300 | -51.85761 | 38292 ft | 442 kts | 284° |
| 2026-05-07 13:25 | 44.91009 | -51.94126 | 38292 ft | 442 kts | 285° |
| 2026-05-07 13:26 | 44.92721 | -52.02439 | 38285 ft | 442 kts | 285° |
| 2026-05-07 13:26 | 44.94413 | -52.10766 | 38287 ft | 442 kts | 285° |
| 2026-05-07 13:27 | 44.96088 | -52.19106 | 38283 ft | 443 kts | 285° |
| 2026-05-07 13:27 | 44.97766 | -52.27511 | 38282 ft | 443 kts | 284° |
| 2026-05-07 13:28 | 44.99426 | -52.35869 | 38275 ft | 443 kts | 284° |
| 2026-05-07 13:28 | 45.01080 | -52.44234 | 38272 ft | 443 kts | 284° |
| 2026-05-07 13:29 | 45.02729 | -52.52605 | 38269 ft | 443 kts | 284° |
| 2026-05-07 13:29 | 45.04383 | -52.61037 | 38269 ft | 443 kts | 284° |
| 2026-05-07 13:30 | 45.06019 | -52.69412 | 38263 ft | 442 kts | 284° |
| 2026-05-07 13:30 | 45.07646 | -52.77782 | 38259 ft | 442 kts | 284° |
| 2026-05-07 13:31 | 45.09266 | -52.86148 | 38258 ft | 441 kts | 283° |
| 2026-05-07 13:31 | 45.10889 | -52.94565 | 38258 ft | 441 kts | 283° |
| 2026-05-07 13:32 | 45.12494 | -53.02926 | 38252 ft | 441 kts | 283° |
| 2026-05-07 13:32 | 45.14092 | -53.11289 | 38247 ft | 441 kts | 283° |
| 2026-05-07 13:33 | 45.15693 | -53.19708 | 38247 ft | 440 kts | 283° |
| 2026-05-07 13:33 | 45.17278 | -53.28072 | 38242 ft | 440 kts | 283° |
| 2026-05-07 13:34 | 45.19643 | -53.40627 | 38239 ft | 440 kts | 282° |
| 2026-05-07 13:35 | 45.21222 | -53.49058 | 38232 ft | 440 kts | 282° |
| 2026-05-07 13:35 | 45.22784 | -53.57434 | 38225 ft | 440 kts | 282° |
| 2026-05-07 13:36 | 45.24340 | -53.65811 | 38223 ft | 440 kts | 282° |
| 2026-05-07 13:36 | 45.25889 | -53.74191 | 38234 ft | 440 kts | 281° |
| 2026-05-07 13:37 | 45.27442 | -53.82633 | 38231 ft | 440 kts | 281° |
| 2026-05-07 13:37 | 45.28978 | -53.91020 | 38226 ft | 440 kts | 281° |
| 2026-05-07 13:38 | 45.30507 | -53.99409 | 38218 ft | 439 kts | 281° |
| 2026-05-07 13:38 | 45.32030 | -54.07796 | 38203 ft | 439 kts | 281° |
| 2026-05-07 13:39 | 45.33547 | -54.16192 | 38200 ft | 440 kts | 281° |
| 2026-05-07 13:39 | 45.35068 | -54.24651 | 38207 ft | 440 kts | 281° |
| 2026-05-07 13:40 | 45.36573 | -54.33061 | 38198 ft | 440 kts | 281° |
| 2026-05-07 13:40 | 45.38073 | -54.41479 | 38195 ft | 440 kts | 281° |
| 2026-05-07 13:41 | 45.39587 | -54.50017 | 38204 ft | 440 kts | 280° |
| 2026-05-07 13:41 | 45.41067 | -54.58396 | 38192 ft | 441 kts | 280° |
| 2026-05-07 13:42 | 45.42550 | -54.66838 | 38189 ft | 441 kts | 280° |
| 2026-05-07 13:42 | 45.44026 | -54.75283 | 38187 ft | 440 kts | 280° |
| 2026-05-07 13:43 | 45.45507 | -54.83788 | 38184 ft | 440 kts | 280° |
| 2026-05-07 13:43 | 45.46971 | -54.92243 | 38188 ft | 441 kts | 280° |
| 2026-05-07 13:44 | 45.48429 | -55.00699 | 38171 ft | 440 kts | 280° |
| 2026-05-07 13:44 | 45.49879 | -55.09152 | 38169 ft | 440 kts | 279° |
| 2026-05-07 13:45 | 45.51331 | -55.17658 | 38167 ft | 439 kts | 279° |
| 2026-05-07 13:45 | 45.52766 | -55.26105 | 38185 ft | 439 kts | 279° |
| 2026-05-07 13:46 | 45.54194 | -55.34556 | 38177 ft | 439 kts | 279° |
| 2026-05-07 13:46 | 45.55625 | -55.43059 | 38159 ft | 439 kts | 279° |
| 2026-05-07 13:47 | 45.57038 | -55.51500 | 38159 ft | 438 kts | 279° |
| 2026-05-07 13:47 | 45.58444 | -55.59936 | 38152 ft | 438 kts | 279° |
| 2026-05-07 13:48 | 45.59842 | -55.68373 | 38152 ft | 437 kts | 279° |
| 2026-05-07 13:48 | 45.61242 | -55.76861 | 38149 ft | 437 kts | 279° |
| 2026-05-07 13:49 | 45.62626 | -55.85290 | 38148 ft | 437 kts | 279° |
| 2026-05-07 13:49 | 45.64002 | -55.93718 | 38143 ft | 436 kts | 279° |
| 2026-05-07 13:50 | 45.65381 | -56.02201 | 38163 ft | 436 kts | 279° |
| 2026-05-07 13:50 | 45.66744 | -56.10633 | 38145 ft | 436 kts | 279° |
| 2026-05-07 13:51 | 45.68100 | -56.19064 | 38138 ft | 436 kts | 279° |
| 2026-05-07 13:51 | 45.69449 | -56.27492 | 38134 ft | 435 kts | 279° |
| 2026-05-07 13:52 | 45.70791 | -56.35916 | 38132 ft | 435 kts | 279° |
| 2026-05-07 13:52 | 45.72125 | -56.44340 | 38131 ft | 435 kts | 279° |
| 2026-05-07 13:53 | 45.73453 | -56.52764 | 38128 ft | 435 kts | 279° |
| 2026-05-07 13:53 | 45.74774 | -56.61190 | 38129 ft | 434 kts | 279° |
| 2026-05-07 13:54 | 45.76095 | -56.69659 | 38123 ft | 433 kts | 279° |
| 2026-05-07 13:54 | 45.77399 | -56.78056 | 38152 ft | 432 kts | 279° |
| 2026-05-07 13:55 | 45.78693 | -56.86433 | 38124 ft | 430 kts | 279° |
| 2026-05-07 13:55 | 45.79974 | -56.94773 | 38114 ft | 428 kts | 279° |
| 2026-05-07 13:56 | 45.81251 | -57.03133 | 38115 ft | 427 kts | 279° |
| 2026-05-07 13:56 | 45.82509 | -57.11411 | 38114 ft | 425 kts | 279° |
| 2026-05-07 13:57 | 45.83767 | -57.19731 | 38149 ft | 425 kts | 278° |
| 2026-05-07 13:57 | 45.85009 | -57.27985 | 38114 ft | 423 kts | 278° |
| 2026-05-07 13:58 | 45.86240 | -57.36212 | 38106 ft | 422 kts | 278° |
| 2026-05-07 13:58 | 45.87460 | -57.44413 | 38101 ft | 421 kts | 278° |
| 2026-05-07 13:59 | 45.88672 | -57.52598 | 38102 ft | 420 kts | 278° |
| 2026-05-07 13:59 | 45.89884 | -57.60827 | 38107 ft | 419 kts | 278° |
| 2026-05-07 14:00 | 45.91077 | -57.68969 | 38091 ft | 416 kts | 278° |
| 2026-05-07 14:00 | 45.92257 | -57.77064 | 38078 ft | 414 kts | 278° |
| 2026-05-07 14:01 | 45.93433 | -57.85170 | 38083 ft | 412 kts | 278° |
| 2026-05-07 14:01 | 45.94590 | -57.93197 | 38072 ft | 411 kts | 278° |
| 2026-05-07 14:02 | 45.95740 | -58.01215 | 38074 ft | 410 kts | 278° |
| 2026-05-07 14:02 | 45.96882 | -58.09220 | 38055 ft | 409 kts | 277° |
| 2026-05-07 14:03 | 45.98023 | -58.17266 | 38058 ft | 409 kts | 277° |
| 2026-05-07 14:03 | 45.99151 | -58.25251 | 38040 ft | 408 kts | 277° |
| 2026-05-07 14:04 | 46.00272 | -58.33237 | 38041 ft | 408 kts | 277° |
| 2026-05-07 14:04 | 46.01388 | -58.41231 | 38032 ft | 409 kts | 277° |
| 2026-05-07 14:05 | 46.02506 | -58.49281 | 38026 ft | 408 kts | 277° |
| 2026-05-07 14:05 | 46.03611 | -58.57274 | 38019 ft | 408 kts | 277° |
| 2026-05-07 14:06 | 46.04709 | -58.65264 | 38013 ft | 408 kts | 277° |
| 2026-05-07 14:06 | 46.05807 | -58.73304 | 38005 ft | 407 kts | 277° |
| 2026-05-07 14:07 | 46.06895 | -58.81309 | 38010 ft | 409 kts | 277° |
| 2026-05-07 14:07 | 46.07981 | -58.89355 | 37992 ft | 411 kts | 277° |
| 2026-05-07 14:08 | 46.09067 | -58.97438 | 37995 ft | 413 kts | 277° |
| 2026-05-07 14:08 | 46.10159 | -59.05607 | 37978 ft | 414 kts | 277° |
| 2026-05-07 14:09 | 46.11241 | -59.13745 | 37974 ft | 415 kts | 277° |
| 2026-05-07 14:09 | 46.12319 | -59.21909 | 37961 ft | 416 kts | 276° |
| 2026-05-07 14:10 | 46.13215 | -59.28727 | 37961 ft | 417 kts | 276° |
| 2026-05-07 14:10 | 46.14470 | -59.38332 | 37964 ft | 415 kts | 276° |
| 2026-05-07 14:11 | 46.15354 | -59.45128 | 37934 ft | 414 kts | 276° |
| 2026-05-07 14:11 | 46.16402 | -59.53241 | 37932 ft | 411 kts | 276° |
| 2026-05-07 14:12 | 46.17447 | -59.61372 | 37941 ft | 410 kts | 276° |
| 2026-05-07 14:12 | 46.18475 | -59.69434 | 37925 ft | 409 kts | 276° |
| 2026-05-07 14:13 | 46.19497 | -59.77492 | 37915 ft | 409 kts | 276° |
| 2026-05-07 14:13 | 46.20513 | -59.85542 | 37920 ft | 408 kts | 276° |
| 2026-05-07 14:14 | 46.21530 | -59.93657 | 37911 ft | 409 kts | 276° |
| 2026-05-07 14:14 | 46.22540 | -60.01764 | 37927 ft | 413 kts | 275° |
| 2026-05-07 14:15 | 46.23552 | -60.09938 | 37919 ft | 416 kts | 275° |
| 2026-05-07 14:15 | 46.24566 | -60.18176 | 37918 ft | 419 kts | 275° |
| 2026-05-07 14:16 | 46.25589 | -60.26540 | 37919 ft | 423 kts | 275° |
| 2026-05-07 14:16 | 46.26606 | -60.34899 | 37885 ft | 422 kts | 275° |
| 2026-05-07 14:17 | 46.27612 | -60.43207 | 37864 ft | 419 kts | 275° |
| 2026-05-07 14:17 | 46.28611 | -60.51516 | 37859 ft | 416 kts | 275° |
| 2026-05-07 14:18 | 46.29591 | -60.59729 | 37849 ft | 414 kts | 275° |
| 2026-05-07 14:18 | 46.30560 | -60.67911 | 37858 ft | 413 kts | 275° |
| 2026-05-07 14:19 | 46.31522 | -60.76082 | 37875 ft | 413 kts | 275° |
| 2026-05-07 14:19 | 46.32492 | -60.84373 | 37850 ft | 413 kts | 275° |
| 2026-05-07 14:20 | 46.33437 | -60.92509 | 37821 ft | 414 kts | 275° |
| 2026-05-07 14:20 | 46.34384 | -61.00709 | 37812 ft | 414 kts | 275° |
| 2026-05-07 14:21 | 46.35332 | -61.08968 | 37799 ft | 414 kts | 275° |
| 2026-05-07 14:21 | 46.36268 | -61.17175 | 37859 ft | 414 kts | 275° |
| 2026-05-07 14:22 | 46.37199 | -61.25403 | 37778 ft | 415 kts | 274° |
| 2026-05-07 14:22 | 46.38125 | -61.33633 | 37770 ft | 415 kts | 274° |
| 2026-05-07 14:23 | 46.39045 | -61.41865 | 37770 ft | 416 kts | 274° |
| 2026-05-07 14:23 | 46.39966 | -61.50169 | 37753 ft | 415 kts | 274° |
| 2026-05-07 14:24 | 46.40874 | -61.58399 | 37808 ft | 414 kts | 274° |
| 2026-05-07 14:24 | 46.41775 | -61.66635 | 37776 ft | 415 kts | 274° |
| 2026-05-07 14:25 | 46.42671 | -61.74874 | 37761 ft | 415 kts | 274° |
| 2026-05-07 14:25 | 46.43567 | -61.83171 | 37768 ft | 415 kts | 274° |
| 2026-05-07 14:26 | 46.44450 | -61.91417 | 37766 ft | 415 kts | 274° |
| 2026-05-07 14:26 | 46.45329 | -61.99668 | 37803 ft | 415 kts | 274° |
| 2026-05-07 14:27 | 46.46203 | -62.07948 | 37762 ft | 417 kts | 274° |
| 2026-05-07 14:27 | 46.47074 | -62.16249 | 37747 ft | 417 kts | 274° |
| 2026-05-07 14:28 | 46.47946 | -62.24612 | 37734 ft | 417 kts | 274° |
| 2026-05-07 14:28 | 46.48805 | -62.32916 | 37756 ft | 417 kts | 274° |
| 2026-05-07 14:29 | 46.49657 | -62.41213 | 37749 ft | 417 kts | 273° |
| 2026-05-07 14:29 | 46.50502 | -62.49514 | 37742 ft | 417 kts | 273° |
| 2026-05-07 14:30 | 46.51348 | -62.57872 | 37723 ft | 417 kts | 273° |
| 2026-05-07 14:30 | 46.52181 | -62.66173 | 37728 ft | 416 kts | 273° |
| 2026-05-07 14:31 | 46.53007 | -62.74468 | 37720 ft | 416 kts | 273° |
| 2026-05-07 14:31 | 46.53828 | -62.82764 | 37747 ft | 417 kts | 273° |
| 2026-05-07 14:32 | 46.54644 | -62.91088 | 37721 ft | 417 kts | 273° |
| 2026-05-07 14:32 | 46.55461 | -62.99480 | 37713 ft | 418 kts | 273° |
| 2026-05-07 14:33 | 46.56268 | -63.07825 | 37708 ft | 418 kts | 273° |
| 2026-05-07 14:33 | 46.57068 | -63.16177 | 37709 ft | 418 kts | 273° |
| 2026-05-07 14:34 | 46.57864 | -63.24538 | 37714 ft | 419 kts | 272° |
| 2026-05-07 14:34 | 46.58660 | -63.32981 | 37703 ft | 420 kts | 272° |
| 2026-05-07 14:35 | 46.58926 | -63.35826 | 37702 ft | 420 kts | 272° |
| 2026-05-07 14:36 | 46.59031 | -63.36946 | 37704 ft | 420 kts | 272° |
| 2026-05-07 14:36 | 46.59810 | -63.45300 | 37701 ft | 420 kts | 272° |
| 2026-05-07 14:37 | 46.60588 | -63.53709 | 37699 ft | 421 kts | 272° |
| 2026-05-07 14:37 | 46.61743 | -63.66329 | 37705 ft | 421 kts | 272° |
| 2026-05-07 14:38 | 46.62506 | -63.74752 | 37700 ft | 421 kts | 272° |
| 2026-05-07 14:38 | 46.63267 | -63.83230 | 37695 ft | 421 kts | 272° |
| 2026-05-07 14:39 | 46.64017 | -63.91647 | 37693 ft | 420 kts | 272° |
| 2026-05-07 14:39 | 46.64760 | -64.00056 | 37693 ft | 420 kts | 272° |
| 2026-05-07 14:40 | 46.65496 | -64.08467 | 37696 ft | 420 kts | 271° |
| 2026-05-07 14:40 | 46.66231 | -64.16950 | 37693 ft | 421 kts | 271° |
| 2026-05-07 14:41 | 46.66957 | -64.25387 | 37681 ft | 421 kts | 271° |
| 2026-05-07 14:41 | 46.67677 | -64.33827 | 37685 ft | 421 kts | 271° |
| 2026-05-07 14:42 | 46.68390 | -64.42270 | 37690 ft | 421 kts | 271° |
| 2026-05-07 14:42 | 46.69102 | -64.50772 | 37685 ft | 421 kts | 271° |
| 2026-05-07 14:43 | 46.69803 | -64.59220 | 37686 ft | 421 kts | 271° |
| 2026-05-07 14:43 | 46.70497 | -64.67668 | 37685 ft | 421 kts | 271° |
| 2026-05-07 14:44 | 46.71186 | -64.76114 | 37685 ft | 421 kts | 271° |
| 2026-05-07 14:44 | 46.71872 | -64.84617 | 37688 ft | 421 kts | 271° |
| 2026-05-07 14:45 | 46.72548 | -64.93085 | 37693 ft | 422 kts | 270° |
| 2026-05-07 14:45 | 46.73220 | -65.01584 | 37691 ft | 424 kts | 270° |
| 2026-05-07 14:46 | 46.73889 | -65.10098 | 37691 ft | 423 kts | 270° |
| 2026-05-07 14:46 | 46.74550 | -65.18606 | 37695 ft | 423 kts | 270° |
| 2026-05-07 14:47 | 46.75208 | -65.27164 | 37697 ft | 423 kts | 270° |
| 2026-05-07 14:47 | 46.75856 | -65.35682 | 37711 ft | 424 kts | 270° |
| 2026-05-07 14:48 | 46.76500 | -65.44229 | 37706 ft | 425 kts | 270° |
| 2026-05-07 14:48 | 46.77139 | -65.52797 | 37694 ft | 426 kts | 270° |
| 2026-05-07 14:49 | 46.77778 | -65.61438 | 37699 ft | 427 kts | 270° |
| 2026-05-07 14:49 | 46.78406 | -65.70030 | 37760 ft | 427 kts | 270° |
| 2026-05-07 14:50 | 46.79028 | -65.78654 | 37712 ft | 429 kts | 270° |
| 2026-05-07 14:50 | 46.79652 | -65.87361 | 37709 ft | 430 kts | 270° |
| 2026-05-07 14:51 | 46.80265 | -65.96023 | 37704 ft | 430 kts | 270° |
| 2026-05-07 14:51 | 46.80872 | -66.04691 | 37709 ft | 430 kts | 270° |
| 2026-05-07 14:52 | 46.81473 | -66.13365 | 37759 ft | 431 kts | 270° |
| 2026-05-07 14:52 | 46.82068 | -66.22058 | 37725 ft | 431 kts | 270° |
| 2026-05-07 14:53 | 46.82660 | -66.30815 | 37717 ft | 432 kts | 270° |
| 2026-05-07 14:53 | 46.83243 | -66.39519 | 37711 ft | 432 kts | 270° |
| 2026-05-07 14:54 | 46.83819 | -66.48223 | 37711 ft | 431 kts | 269° |
| 2026-05-07 14:54 | 46.84391 | -66.56978 | 37734 ft | 431 kts | 270° |
| 2026-05-07 14:55 | 46.84953 | -66.65672 | 37719 ft | 431 kts | 269° |
| 2026-05-07 14:55 | 46.85507 | -66.74361 | 37718 ft | 430 kts | 269° |
| 2026-05-07 14:56 | 46.86058 | -66.83098 | 37724 ft | 430 kts | 269° |
| 2026-05-07 14:56 | 46.86595 | -66.91714 | 37722 ft | 429 kts | 269° |
| 2026-05-07 14:57 | 46.87137 | -67.00478 | 37715 ft | 431 kts | 269° |
| 2026-05-07 14:57 | 46.87615 | -67.09199 | 37722 ft | 430 kts | 268° |
| 2026-05-07 14:58 | 46.87878 | -67.17876 | 37735 ft | 430 kts | 267° |
| 2026-05-07 14:58 | 46.88121 | -67.26624 | 37712 ft | 431 kts | 267° |
| 2026-05-07 14:59 | 46.88385 | -67.35396 | 37725 ft | 432 kts | 267° |
| 2026-05-07 14:59 | 46.88610 | -67.42756 | 37745 ft | 434 kts | 267° |
| 2026-05-07 15:00 | 46.88876 | -67.51573 | 37729 ft | 435 kts | 267° |
| 2026-05-07 15:00 | 46.89135 | -67.60360 | 37716 ft | 436 kts | 267° |
| 2026-05-07 15:01 | 46.89389 | -67.69216 | 37721 ft | 436 kts | 267° |
| 2026-05-07 15:01 | 46.89666 | -67.78085 | 37711 ft | 438 kts | 269° |
| 2026-05-07 15:02 | 46.90217 | -67.86978 | 37705 ft | 440 kts | 270° |
| 2026-05-07 15:02 | 46.90814 | -67.95874 | 37700 ft | 440 kts | 270° |
| 2026-05-07 15:03 | 46.91397 | -68.04775 | 37701 ft | 439 kts | 270° |
| 2026-05-07 15:03 | 46.91961 | -68.13666 | 37707 ft | 439 kts | 270° |
| 2026-05-07 15:04 | 46.92513 | -68.22556 | 37704 ft | 439 kts | 270° |
| 2026-05-07 15:04 | 46.93058 | -68.31462 | 37709 ft | 440 kts | 270° |
| 2026-05-07 15:05 | 46.93329 | -68.35931 | 37320 ft | 446 kts | 270° |
| 2026-05-07 15:05 | 46.93601 | -68.40470 | 36771 ft | 446 kts | 270° |
| 2026-05-07 15:05 | 46.93872 | -68.44962 | 36243 ft | 440 kts | 270° |
| 2026-05-07 15:05 | 46.94139 | -68.49398 | 35754 ft | 435 kts | 270° |
| 2026-05-07 15:06 | 46.94399 | -68.53749 | 35274 ft | 429 kts | 270° |
| 2026-05-07 15:06 | 46.94656 | -68.58084 | 34769 ft | 425 kts | 270° |
| 2026-05-07 15:06 | 46.94906 | -68.62364 | 34282 ft | 421 kts | 270° |
| 2026-05-07 15:06 | 46.95153 | -68.66620 | 33779 ft | 418 kts | 270° |
| 2026-05-07 15:07 | 46.95392 | -68.70786 | 33224 ft | 414 kts | 270° |
| 2026-05-07 15:07 | 46.95634 | -68.75007 | 32698 ft | 409 kts | 270° |
| 2026-05-07 15:07 | 46.95866 | -68.79082 | 32213 ft | 404 kts | 269° |
| 2026-05-07 15:07 | 46.96098 | -68.83162 | 31739 ft | 399 kts | 269° |
| 2026-05-07 15:08 | 46.96324 | -68.87182 | 31269 ft | 395 kts | 269° |
| 2026-05-07 15:08 | 46.96547 | -68.91180 | 30810 ft | 390 kts | 269° |
| 2026-05-07 15:08 | 46.96765 | -68.95116 | 30363 ft | 386 kts | 269° |
| 2026-05-07 15:08 | 46.96980 | -68.99009 | 29920 ft | 382 kts | 269° |
| 2026-05-07 15:09 | 46.97191 | -69.02864 | 29399 ft | 378 kts | 269° |
| 2026-05-07 15:09 | 46.97399 | -69.06672 | 28940 ft | 373 kts | 269° |
| 2026-05-07 15:09 | 46.97602 | -69.10428 | 28460 ft | 368 kts | 269° |
| 2026-05-07 15:09 | 46.97803 | -69.14141 | 28007 ft | 363 kts | 269° |
| 2026-05-07 15:10 | 46.97999 | -69.17801 | 27550 ft | 358 kts | 269° |
| 2026-05-07 15:10 | 46.98193 | -69.21458 | 27112 ft | 354 kts | 269° |
| 2026-05-07 15:10 | 46.98378 | -69.24983 | 26675 ft | 350 kts | 269° |
| 2026-05-07 15:10 | 46.98564 | -69.28520 | 26245 ft | 346 kts | 268° |
| 2026-05-07 15:11 | 46.98746 | -69.32019 | 25821 ft | 343 kts | 268° |
| 2026-05-07 15:11 | 46.98925 | -69.35480 | 25399 ft | 339 kts | 268° |
| 2026-05-07 15:11 | 46.99102 | -69.38908 | 24988 ft | 336 kts | 268° |
| 2026-05-07 15:11 | 46.99276 | -69.42302 | 24582 ft | 333 kts | 268° |
| 2026-05-07 15:12 | 46.99448 | -69.45678 | 24186 ft | 331 kts | 268° |
| 2026-05-07 15:12 | 46.99617 | -69.49025 | 23784 ft | 328 kts | 268° |
| 2026-05-07 15:12 | 46.99784 | -69.52349 | 23405 ft | 327 kts | 268° |
| 2026-05-07 15:12 | 46.99949 | -69.55658 | 22939 ft | 325 kts | 268° |
| 2026-05-07 15:13 | 47.00113 | -69.58946 | 22498 ft | 322 kts | 268° |
| 2026-05-07 15:13 | 47.00275 | -69.62197 | 22094 ft | 319 kts | 268° |
| 2026-05-07 15:13 | 47.00434 | -69.65414 | 21709 ft | 315 kts | 268° |
| 2026-05-07 15:13 | 47.00590 | -69.68601 | 21318 ft | 312 kts | 268° |
| 2026-05-07 15:14 | 47.00744 | -69.71751 | 20929 ft | 309 kts | 268° |
| 2026-05-07 15:14 | 47.00895 | -69.74873 | 20552 ft | 306 kts | 268° |
| 2026-05-07 15:14 | 47.01044 | -69.77968 | 20167 ft | 303 kts | 268° |
| 2026-05-07 15:14 | 47.01190 | -69.81036 | 19800 ft | 300 kts | 268° |
| 2026-05-07 15:15 | 47.01335 | -69.84075 | 19434 ft | 298 kts | 268° |
| 2026-05-07 15:15 | 47.01478 | -69.87093 | 19058 ft | 296 kts | 268° |
| 2026-05-07 15:15 | 47.01619 | -69.90090 | 18679 ft | 294 kts | 268° |
| 2026-05-07 15:15 | 47.01757 | -69.93068 | 18329 ft | 293 kts | 268° |
| 2026-05-07 15:16 | 47.01895 | -69.96063 | 17809 ft | 296 kts | 268° |
| 2026-05-07 15:16 | 47.02034 | -69.99059 | 17390 ft | 294 kts | 268° |
| 2026-05-07 15:16 | 47.02170 | -70.02027 | 16999 ft | 292 kts | 268° |
| 2026-05-07 15:16 | 47.02307 | -70.05001 | 16609 ft | 289 kts | 268° |
| 2026-05-07 15:17 | 47.02441 | -70.07927 | 16281 ft | 286 kts | 268° |
| 2026-05-07 15:17 | 47.02571 | -70.10785 | 16081 ft | 278 kts | 268° |
| 2026-05-07 15:17 | 47.02698 | -70.13592 | 15781 ft | 275 kts | 268° |
| 2026-05-07 15:17 | 47.02823 | -70.16397 | 15443 ft | 278 kts | 268° |
| 2026-05-07 15:18 | 47.02947 | -70.19270 | 15111 ft | 287 kts | 269° |
| 2026-05-07 15:18 | 47.03075 | -70.22228 | 14737 ft | 294 kts | 269° |
| 2026-05-07 15:18 | 47.03205 | -70.25188 | 14367 ft | 295 kts | 270° |
| 2026-05-07 15:18 | 47.03337 | -70.28178 | 13991 ft | 293 kts | 270° |
| 2026-05-07 15:19 | 47.03468 | -70.31143 | 13626 ft | 291 kts | 270° |
| 2026-05-07 15:19 | 47.03596 | -70.34088 | 13247 ft | 289 kts | 270° |
| 2026-05-07 15:19 | 47.03721 | -70.37024 | 12863 ft | 287 kts | 271° |
| 2026-05-07 15:19 | 47.03845 | -70.39933 | 12489 ft | 286 kts | 271° |
| 2026-05-07 15:20 | 47.03971 | -70.42846 | 12136 ft | 284 kts | 271° |
| 2026-05-07 15:20 | 47.04093 | -70.45722 | 11793 ft | 282 kts | 271° |
| 2026-05-07 15:20 | 47.04213 | -70.48580 | 11441 ft | 280 kts | 271° |
| 2026-05-07 15:20 | 47.04332 | -70.51423 | 11100 ft | 279 kts | 271° |
| 2026-05-07 15:21 | 47.04449 | -70.54256 | 10748 ft | 278 kts | 271° |
| 2026-05-07 15:21 | 47.04565 | -70.57079 | 10414 ft | 277 kts | 272° |
| 2026-05-07 15:21 | 47.04680 | -70.59866 | 10247 ft | 269 kts | 272° |
| 2026-05-07 15:21 | 47.04790 | -70.62567 | 10114 ft | 261 kts | 272° |
| 2026-05-07 15:22 | 47.04897 | -70.65176 | 9997 ft | 252 kts | 272° |
| 2026-05-07 15:22 | 47.04999 | -70.67727 | 9731 ft | 250 kts | 272° |
| 2026-05-07 15:22 | 47.05101 | -70.70259 | 9435 ft | 249 kts | 272° |
| 2026-05-07 15:22 | 47.05202 | -70.72783 | 9131 ft | 247 kts | 272° |
| 2026-05-07 15:23 | 47.05302 | -70.75289 | 8834 ft | 245 kts | 271° |
| 2026-05-07 15:23 | 47.05399 | -70.77775 | 8537 ft | 244 kts | 271° |
| 2026-05-07 15:23 | 47.05496 | -70.80250 | 8255 ft | 243 kts | 271° |
| 2026-05-07 15:23 | 47.05526 | -70.82698 | 7942 ft | 237 kts | 260° |
| 2026-05-07 15:24 | 47.04968 | -70.84874 | 7686 ft | 229 kts | 243° |
| 2026-05-07 15:24 | 47.04241 | -70.87019 | 7414 ft | 242 kts | 244° |
| 2026-05-07 15:24 | 47.03502 | -70.89286 | 7133 ft | 249 kts | 244° |
| 2026-05-07 15:24 | 47.02756 | -70.91584 | 6812 ft | 249 kts | 243° |
| 2026-05-07 15:25 | 47.02009 | -70.93870 | 6508 ft | 248 kts | 244° |
| 2026-05-07 15:25 | 47.01265 | -70.96146 | 6200 ft | 247 kts | 244° |
| 2026-05-07 15:25 | 47.00678 | -70.97939 | 5962 ft | 247 kts | 244° |
| 2026-05-07 15:25 | 47.00566 | -70.98281 | 5915 ft | 246 kts | 244° |
| 2026-05-07 15:27 | 46.99918 | -71.00258 | 5656 ft | 246 kts | 244° |
| 2026-05-07 15:28 | 46.99181 | -71.02504 | 5365 ft | 246 kts | 244° |
| 2026-05-07 15:28 | 46.98447 | -71.04741 | 5220 ft | 237 kts | 244° |
| 2026-05-07 15:28 | 46.97746 | -71.06878 | 5099 ft | 228 kts | 244° |
| 2026-05-07 15:28 | 46.97073 | -71.08927 | 5001 ft | 218 kts | 244° |
| 2026-05-07 15:29 | 46.96430 | -71.10879 | 4899 ft | 207 kts | 244° |
| 2026-05-07 15:29 | 46.95819 | -71.12736 | 4766 ft | 201 kts | 244° |
| 2026-05-07 15:29 | 46.95223 | -71.14540 | 4545 ft | 198 kts | 244° |
| 2026-05-07 15:29 | 46.94621 | -71.16363 | 4291 ft | 193 kts | 243° |
| 2026-05-07 15:30 | 46.93954 | -71.17984 | 4069 ft | 177 kts | 227° |
| 2026-05-07 15:30 | 46.93046 | -71.19237 | 3912 ft | 185 kts | 225° |
| 2026-05-07 15:30 | 46.92122 | -71.20572 | 3619 ft | 184 kts | 226° |
| 2026-05-07 15:30 | 46.91242 | -71.21849 | 3347 ft | 177 kts | 227° |
| 2026-05-07 15:31 | 46.90388 | -71.23086 | 3101 ft | 169 kts | 226° |
| 2026-05-07 15:31 | 46.89574 | -71.24262 | 2897 ft | 160 kts | 226° |
| 2026-05-07 15:31 | 46.88774 | -71.25421 | 2686 ft | 165 kts | 226° |
| 2026-05-07 15:31 | 46.87954 | -71.26609 | 2458 ft | 163 kts | 226° |
| 2026-05-07 15:32 | 46.87181 | -71.27726 | 2234 ft | 152 kts | 227° |
| 2026-05-07 15:32 | 46.86467 | -71.28758 | 2000 ft | 140 kts | 227° |
| 2026-05-07 15:32 | 46.85776 | -71.29757 | 1879 ft | 140 kts | 227° |
| 2026-05-07 15:32 | 46.85084 | -71.30758 | 1652 ft | 140 kts | 227° |
| 2026-05-07 15:33 | 46.84392 | -71.31757 | 1495 ft | 140 kts | 227° |
| 2026-05-07 15:33 | 46.83693 | -71.32763 | 1275 ft | 142 kts | 226° |
| 2026-05-07 15:33 | 46.82991 | -71.33782 | 1052 ft | 144 kts | 226° |
| 2026-05-07 15:33 | 46.82275 | -71.34823 | 855 ft | 146 kts | 226° |
| 2026-05-07 15:34 | 46.81559 | -71.35872 | 676 ft | 146 kts | 226° |
| 2026-05-07 15:34 | 46.80836 | -71.36905 | 515 ft | 145 kts | 225° |
| 2026-05-07 15:34 | 46.80121 | -71.37932 | 314 ft | 143 kts | 226° |
| 2026-05-07 15:34 | 46.79437 | -71.38915 | 253 ft | 127 kts | 224° |
| 2026-05-07 15:35 | 46.78915 | -71.39664 | 254 ft | 83 kts | 224° |
| 2026-05-07 15:35 | 46.78624 | -71.40080 | 251 ft | 28 kts | 224° |
| 2026-05-07 15:35 | 46.78543 | -71.40163 | 252 ft | 11 kts | 179° |
| 2026-05-07 15:35 | 46.78493 | -71.40086 | 250 ft | 12 kts | 103° |
| 2026-05-07 15:36 | 46.78489 | -71.39955 | 249 ft | 13 kts | 90° |
| 2026-05-07 15:36 | 46.78511 | -71.39831 | 248 ft | 13 kts | 53° |
| 2026-05-07 15:36 | 46.78576 | -71.39736 | 249 ft | 14 kts | 44° |
| 2026-05-07 15:36 | 46.78678 | -71.39589 | 249 ft | 24 kts | 45° |
| 2026-05-07 15:37 | 46.78787 | -71.39434 | 250 ft | 21 kts | 41° |
| 2026-05-07 15:37 | 46.78904 | -71.39314 | 249 ft | 21 kts | 36° |
| 2026-05-07 15:37 | 46.79011 | -71.39175 | 248 ft | 20 kts | 45° |
| 2026-05-07 15:37 | 46.79110 | -71.39031 | 248 ft | 20 kts | 44° |
| 2026-05-07 15:38 | 46.79192 | -71.38914 | 248 ft | 15 kts | 45° |
| 2026-05-07 15:38 | 46.79265 | -71.38808 | 249 ft | 15 kts | 45° |
| 2026-05-07 15:38 | 46.79338 | -71.38704 | 249 ft | 15 kts | 44° |
| 2026-05-07 15:38 | 46.79395 | -71.38623 | 249 ft | 7 kts | 50° |
| 2026-05-07 15:39 | 46.79393 | -71.38573 | 248 ft | 5 kts | 118° |
| 2026-05-07 15:39 | 46.79362 | -71.38549 | 248 ft | 6 kts | 175° |
| 2026-05-07 15:39 | 46.79322 | -71.38557 | 105 ft | 6 kts | 191° |
| 2026-05-07 15:39 | 46.79282 | -71.38560 | 248 ft | 5 kts | 158° |
| 2026-05-07 15:40 | 46.79267 | -71.38518 | 248 ft | 5 kts | 105° |
| 2026-05-07 15:40 | 46.79260 | -71.38478 | 248 ft | 2 kts | 103° |
| 2026-05-07 15:40 | 46.79259 | -71.38472 | 248 ft | 0 kts | 103° |
| 2026-05-07 15:40 | 46.79259 | -71.38470 | 248 ft | 0 kts | 103° |